Time,TemperatureF,DewpointF,PressureIn,WindDirection,WindDirectionDegrees,WindSpeedMPH,WindSpeedGustMPH,Humidity,HourlyPrecipIn,Conditions,Clouds,dailyrainin,SoftwareType,DateUTC
2013-01-19 00:04:00,21.0,20.0,29.67,North,0,2.0,4.0,93,-99.99,,,-99.99,,2013-01-19 05:04:00,
2013-01-19 00:23:00,21.0,20.0,29.67,North,10,2.0,4.0,93,-99.99,,,-99.99,,2013-01-19 05:23:00,
2013-01-19 00:33:00,22.0,20.0,29.66,NE,45,0.0,3.0,93,-99.99,,,-99.99,,2013-01-19 05:33:00,
2013-01-19 00:43:00,22.0,20.0,29.66,NE,45,0.0,3.0,93,-99.99,,,-99.99,,2013-01-19 05:43:00,
2013-01-19 00:53:00,22.0,20.0,29.67,East,80,0.0,1.0,93,-99.99,,,-99.99,,2013-01-19 05:53:00,
2013-01-19 01:03:00,22.0,20.0,29.67,NE,45,0.0,1.0,93,-99.99,,,-99.99,,2013-01-19 06:03:00,
2013-01-19 01:12:00,22.0,20.0,29.67,NE,45,0.0,1.0,93,-99.99,,,-99.99,,2013-01-19 06:12:00,
2013-01-19 01:23:00,22.0,20.0,29.67,North,350,0.0,1.0,93,-99.99,,,-99.99,,2013-01-19 06:23:00,
2013-01-19 01:33:00,22.0,20.0,29.66,West,280,0.0,1.0,93,-99.99,,,-99.99,,2013-01-19 06:33:00,
2013-01-19 01:43:00,22.0,20.0,29.66,West,280,0.0,1.0,93,-99.99,,,-99.99,,2013-01-19 06:43:00,
2013-01-19 01:52:00,22.0,20.0,29.66,North,5,1.0,1.0,93,-99.99,,,-99.99,,2013-01-19 06:52:00,
2013-01-19 02:02:00,22.0,20.0,29.66,ENE,70,1.0,2.0,94,-99.99,,,-99.99,,2013-01-19 07:02:00,
2013-01-19 02:12:00,22.0,20.0,29.66,ENE,70,1.0,2.0,94,-99.99,,,-99.99,,2013-01-19 07:12:00,
2013-01-19 02:23:00,22.0,20.0,29.65,East,80,0.0,1.0,94,-99.99,,,-99.99,,2013-01-19 07:23:00,
2013-01-19 02:33:00,22.0,20.0,29.65,NE,55,1.0,1.0,94,-99.99,,,-99.99,,2013-01-19 07:33:00,
2013-01-19 02:43:00,22.0,20.0,29.65,NE,55,1.0,1.0,94,-99.99,,,-99.99,,2013-01-19 07:43:00,
2013-01-19 02:52:00,22.0,20.0,29.66,East,100,0.0,1.0,94,-99.99,,,-99.99,,2013-01-19 07:52:00,
2013-01-19 03:03:00,22.0,20.0,29.67,North,355,1.0,1.0,94,-99.99,,,-99.99,,2013-01-19 08:03:00,
2013-01-19 03:12:00,22.0,20.0,29.67,North,355,1.0,1.0,94,-99.99,,,-99.99,,2013-01-19 08:12:00,
2013-01-19 03:22:00,22.0,20.0,29.66,NW,315,1.0,3.0,94,-99.99,,,-99.99,,2013-01-19 08:22:00,
2013-01-19 03:33:00,22.0,20.0,29.67,WNW,300,1.0,3.0,94,-99.99,,,-99.99,,2013-01-19 08:33:00,
2013-01-19 03:43:00,22.0,20.0,29.67,WNW,300,1.0,3.0,94,-99.99,,,-99.99,,2013-01-19 08:43:00,
2013-01-19 03:53:00,22.0,21.0,29.68,West,260,1.0,2.0,94,-99.99,,,-99.99,,2013-01-19 08:53:00,
2013-01-19 04:02:00,22.0,21.0,29.68,WNW,290,1.0,3.0,94,-99.99,,,-99.99,,2013-01-19 09:02:00,
2013-01-19 04:12:00,22.0,21.0,29.68,WNW,290,1.0,3.0,94,-99.99,,,-99.99,,2013-01-19 09:12:00,
2013-01-19 04:23:00,22.0,21.0,29.69,NW,305,1.0,5.0,94,-99.99,,,-99.99,,2013-01-19 09:23:00,
2013-01-19 04:33:00,22.0,21.0,29.69,WNW,290,2.0,5.0,94,-99.99,,,-99.99,,2013-01-19 09:33:00,
2013-01-19 04:43:00,22.0,21.0,29.69,WNW,290,2.0,5.0,94,-99.99,,,-99.99,,2013-01-19 09:43:00,
2013-01-19 04:52:00,22.0,21.0,29.69,NW,305,4.0,6.0,94,-99.99,,,-99.99,,2013-01-19 09:52:00,
2013-01-19 05:02:00,22.0,21.0,29.67,NNW,345,2.0,4.0,94,-99.99,,,-99.99,,2013-01-19 10:02:00,
2013-01-19 05:12:00,22.0,21.0,29.67,NNW,345,2.0,4.0,94,-99.99,,,-99.99,,2013-01-19 10:12:00,
2013-01-19 05:23:00,22.0,21.0,29.67,NW,320,2.0,4.0,94,-99.99,,,-99.99,,2013-01-19 10:23:00,
2013-01-19 05:33:00,22.0,20.0,29.68,WNW,290,3.0,4.0,94,-99.99,,,-99.99,,2013-01-19 10:33:00,
2013-01-19 05:43:00,22.0,20.0,29.68,WNW,290,3.0,4.0,94,-99.99,,,-99.99,,2013-01-19 10:43:00,
2013-01-19 05:52:00,22.0,20.0,29.69,West,265,4.0,5.0,94,-99.99,,,-99.99,,2013-01-19 10:52:00,
2013-01-19 06:03:00,22.0,20.0,29.69,WNW,290,4.0,6.0,93,-99.99,,,-99.99,,2013-01-19 11:03:00,
2013-01-19 06:12:00,22.0,20.0,29.69,WNW,290,4.0,6.0,93,-99.99,,,-99.99,,2013-01-19 11:12:00,
2013-01-19 06:20:00,22.0,20.0,29.71,WNW,295,1.0,6.0,92,-99.99,,,-99.99,,2013-01-19 11:20:00,
2013-01-19 07:48:00,22.0,20.0,29.72,West,275,3.0,4.0,91,-99.99,,,-99.99,,2013-01-19 12:48:00,
2013-01-19 08:03:00,22.0,20.0,29.73,NW,310,2.0,6.0,91,-99.99,,,-99.99,,2013-01-19 13:03:00,
2013-01-19 08:13:00,22.0,20.0,29.73,NW,310,2.0,6.0,91,-99.99,,,-99.99,,2013-01-19 13:13:00,
2013-01-19 08:23:00,22.0,20.0,29.72,WNW,290,2.0,4.0,91,-99.99,,,-99.99,,2013-01-19 13:23:00,
2013-01-19 08:34:00,22.0,20.0,29.73,North,350,1.0,2.0,91,-99.99,,,-99.99,,2013-01-19 13:34:00,
2013-01-19 08:43:00,22.0,20.0,29.73,North,350,1.0,2.0,91,-99.99,,,-99.99,,2013-01-19 13:43:00,
2013-01-19 08:53:00,22.0,20.0,29.72,WSW,240,1.0,3.0,91,-99.99,,,-99.99,,2013-01-19 13:53:00,
2013-01-19 09:03:00,22.0,20.0,29.72,ESE,105,1.0,2.0,91,-99.99,,,-99.99,,2013-01-19 14:03:00,
2013-01-19 09:13:00,22.0,20.0,29.72,ESE,105,1.0,2.0,91,-99.99,,,-99.99,,2013-01-19 14:13:00,
2013-01-19 09:23:00,22.0,20.0,29.72,North,5,1.0,4.0,91,-99.99,,,-99.99,,2013-01-19 14:23:00,
2013-01-19 09:34:00,22.0,20.0,29.72,North,355,2.0,4.0,92,-99.99,,,-99.99,,2013-01-19 14:34:00,
2013-01-19 09:43:00,22.0,20.0,29.72,North,355,2.0,4.0,92,-99.99,,,-99.99,,2013-01-19 14:43:00,
2013-01-19 09:53:00,22.0,20.0,29.72,NNW,340,1.0,4.0,92,-99.99,,,-99.99,,2013-01-19 14:53:00,
2013-01-19 10:03:00,23.0,21.0,29.72,NE,45,2.0,4.0,92,-99.99,,,-99.99,,2013-01-19 15:03:00,
2013-01-19 10:13:00,23.0,21.0,29.72,NE,45,2.0,4.0,92,-99.99,,,-99.99,,2013-01-19 15:13:00,
2013-01-19 10:23:00,23.0,21.0,29.73,NNE,25,1.0,2.0,92,-99.99,,,-99.99,,2013-01-19 15:23:00,
2013-01-19 10:33:00,23.0,21.0,29.73,NE,40,4.0,5.0,92,-99.99,,,-99.99,,2013-01-19 15:33:00,
2013-01-19 10:43:00,23.0,21.0,29.73,NE,40,4.0,5.0,92,-99.99,,,-99.99,,2013-01-19 15:43:00,
2013-01-19 10:53:00,23.0,21.0,29.73,NNE,30,3.0,7.0,92,-99.99,,,-99.99,,2013-01-19 15:53:00,
2013-01-19 11:03:00,23.0,21.0,29.73,NNE,30,3.0,7.0,92,-99.99,,,-99.99,,2013-01-19 16:03:00,
2013-01-19 11:23:00,23.0,21.0,29.71,ENE,65,8.0,14.0,93,-99.99,,,-99.99,,2013-01-19 16:23:00,
2013-01-19 11:33:00,24.0,22.0,29.71,ENE,65,5.0,14.0,92,-99.99,,,-99.99,,2013-01-19 16:33:00,
2013-01-19 11:43:00,24.0,22.0,29.71,ENE,65,5.0,14.0,92,-99.99,,,-99.99,,2013-01-19 16:43:00,
2013-01-19 11:53:00,24.0,21.0,29.69,ENE,75,6.0,14.0,90,-99.99,,,-99.99,,2013-01-19 16:53:00,
2013-01-19 12:03:00,24.0,22.0,29.68,NE,55,7.0,14.0,90,-99.99,,,-99.99,,2013-01-19 17:03:00,
2013-01-19 12:29:00,25.0,22.0,29.67,NE,40,8.0,14.0,88,-99.99,,,-99.99,,2013-01-19 17:29:00,
2013-01-19 12:37:00,24.0,22.0,29.65,ENE,75,8.0,16.0,89,-99.99,,,-99.99,,2013-01-19 17:37:00,
2013-01-19 12:49:00,24.0,22.0,29.65,ENE,75,8.0,16.0,89,-99.99,,,-99.99,,2013-01-19 17:49:00,
2013-01-19 13:13:00,25.0,22.0,29.63,East,90,8.0,14.0,89,-99.99,,,-99.99,,2013-01-19 18:13:00,
2013-01-19 13:20:00,26.0,24.0,29.59,East,90,6.0,11.0,93,-99.99,,,-99.99,,2013-01-19 18:20:00,
2013-01-19 13:37:00,26.0,24.0,29.62,East,90,6.0,10.0,92,-99.99,,,-99.99,,2013-01-19 18:37:00,
2013-01-19 13:46:00,26.0,24.0,29.62,East,90,6.0,10.0,92,-99.99,,,-99.99,,2013-01-19 18:46:00,
2013-01-19 13:56:00,25.0,23.0,29.61,East,85,4.0,11.0,92,-99.99,,,-99.99,,2013-01-19 18:56:00,
2013-01-19 14:10:00,26.0,24.0,29.59,East,90,6.0,11.0,93,-99.99,,,-99.99,,2013-01-19 19:10:00,
2013-01-19 14:20:00,27.0,25.0,29.53,East,80,4.0,8.0,92,-99.99,,,-99.99,,2013-01-19 19:20:00,
2013-01-19 14:40:00,26.0,24.0,29.55,East,90,8.0,14.0,92,-99.99,,,-99.99,,2013-01-19 19:40:00,
2013-01-19 15:12:00,27.0,25.0,29.53,East,80,4.0,8.0,92,-99.99,,,-99.99,,2013-01-19 20:12:00,
2013-01-19 15:27:00,27.0,25.0,29.52,ENE,75,4.0,11.0,93,-99.99,,,-99.99,,2013-01-19 20:27:00,
2013-01-19 15:39:00,27.0,26.0,29.52,ENE,60,5.0,9.0,94,-99.99,,,-99.99,,2013-01-19 20:39:00,
2013-01-19 15:49:00,27.0,26.0,29.52,ENE,60,5.0,9.0,94,-99.99,,,-99.99,,2013-01-19 20:49:00,
2013-01-19 15:50:00,27.0,27.0,29.46,NE,50,7.0,13.0,96,-99.99,,,-99.99,,2013-01-19 20:50:00,
2013-01-19 15:55:00,27.0,26.0,29.51,NE,40,5.0,9.0,94,-99.99,,,-99.99,,2013-01-19 20:55:00,
2013-01-19 16:09:00,27.0,26.0,29.49,NE,40,6.0,10.0,95,-99.99,,,-99.99,,2013-01-19 21:09:00,
2013-01-19 16:15:00,27.0,26.0,29.49,NE,40,6.0,10.0,95,-99.99,,,-99.99,,2013-01-19 21:15:00,
2013-01-19 16:20:00,28.0,27.0,29.44,NE,50,6.0,11.0,97,-99.99,,,-99.99,,2013-01-19 21:20:00,
2013-01-19 16:29:00,27.0,26.0,29.47,NE,55,6.0,11.0,95,-99.99,,,-99.99,,2013-01-19 21:29:00,
2013-01-19 16:46:00,27.0,27.0,29.46,NE,50,7.0,13.0,96,-99.99,,,-99.99,,2013-01-19 21:46:00,
2013-01-19 16:57:00,28.0,27.0,29.45,NE,40,6.0,13.0,96,-99.99,,,-99.99,,2013-01-19 21:57:00,
2013-01-19 17:16:00,28.0,27.0,29.44,NE,50,6.0,11.0,97,-99.99,,,-99.99,,2013-01-19 22:16:00,
2013-01-19 17:28:00,28.0,27.0,29.43,NE,50,6.0,11.0,97,-99.99,,,-99.99,,2013-01-19 22:28:00,
2013-01-19 17:35:00,28.0,28.0,29.42,ENE,65,6.0,11.0,98,-99.99,,,-99.99,,2013-01-19 22:35:00,
2013-01-19 17:48:00,28.0,28.0,29.42,ENE,65,6.0,11.0,98,-99.99,,,-99.99,,2013-01-19 22:48:00,
2013-01-19 17:55:00,28.0,28.0,29.41,NE,55,4.0,9.0,98,-99.99,,,-99.99,,2013-01-19 22:55:00,
2013-01-19 18:14:00,29.0,28.0,29.40,ENE,75,4.0,7.0,98,-99.99,,,-99.99,,2013-01-19 23:14:00,
2013-01-19 18:28:00,29.0,28.0,29.39,ENE,60,4.0,8.0,98,-99.99,,,-99.99,,2013-01-19 23:28:00,
2013-01-19 18:35:00,29.0,29.0,29.38,ENE,70,4.0,7.0,98,-99.99,,,-99.99,,2013-01-19 23:35:00,
2013-01-19 18:48:00,29.0,29.0,29.38,ENE,70,4.0,7.0,98,-99.99,,,-99.99,,2013-01-19 23:48:00,
2013-01-19 19:01:00,32.0,32.0,29.37,SE,140,11.0,13.0,99,-99.99,,,-99.99,,2013-01-20 00:01:00,
2013-01-19 19:10:00,34.0,34.0,29.36,SSW,210,11.0,27.0,99,-99.99,,,-99.99,,2013-01-20 00:10:00,
2013-01-19 19:17:00,34.0,34.0,29.36,SSW,210,11.0,27.0,99,-99.99,,,-99.99,,2013-01-20 00:17:00,
2013-01-19 19:20:00,33.0,32.0,29.35,South,190,3.0,8.0,99,-99.99,,,-99.99,,2013-01-20 00:20:00,
2013-01-19 19:47:00,33.0,33.0,29.35,SW,220,4.0,11.0,99,-99.99,,,-99.99,,2013-01-20 00:47:00,
2013-01-19 19:54:00,33.0,33.0,29.35,North,5,4.0,9.0,99,-99.99,,,-99.99,,2013-01-20 00:54:00,
2013-01-19 20:05:00,33.0,32.0,29.35,South,190,3.0,8.0,99,-99.99,,,-99.99,,2013-01-20 01:05:00,
2013-01-19 20:28:00,33.0,33.0,29.33,SSW,200,5.0,9.0,99,-99.99,,,-99.99,,2013-01-20 01:28:00,
2013-01-19 20:38:00,33.0,33.0,29.32,SSW,210,11.0,16.0,99,-99.99,,,-99.99,,2013-01-20 01:38:00,
2013-01-19 20:49:00,33.0,33.0,29.32,SSW,210,11.0,16.0,99,-99.99,,,-99.99,,2013-01-20 01:49:00,
2013-01-19 20:59:00,34.0,34.0,29.30,SSW,200,6.0,23.0,99,-99.99,,,-99.99,,2013-01-20 01:59:00,
2013-01-19 21:09:00,34.0,34.0,29.30,SSW,200,6.0,23.0,99,-99.99,,,-99.99,,2013-01-20 02:09:00,
2013-01-19 21:15:00,34.0,34.0,29.30,SSW,200,6.0,23.0,99,-99.99,,,-99.99,,2013-01-20 02:15:00,
2013-01-19 21:37:00,32.0,32.0,29.30,West,260,6.0,16.0,99,-99.99,,,-99.99,,2013-01-20 02:37:00,
2013-01-19 21:45:00,32.0,32.0,29.30,West,260,6.0,16.0,99,-99.99,,,-99.99,,2013-01-20 02:45:00,
2013-01-19 22:09:00,31.0,31.0,29.33,West,275,13.0,24.0,99,-99.99,,,-99.99,,2013-01-20 03:09:00,
2013-01-19 22:15:00,31.0,31.0,29.33,West,275,13.0,24.0,99,-99.99,,,-99.99,,2013-01-20 03:15:00,
2013-01-19 22:26:00,30.0,30.0,29.33,WNW,290,15.0,26.0,99,-99.99,,,-99.99,,2013-01-20 03:26:00,
2013-01-19 22:39:00,30.0,30.0,29.33,West,270,15.0,24.0,99,-99.99,,,-99.99,,2013-01-20 03:39:00,
2013-01-19 22:45:00,30.0,30.0,29.33,West,270,15.0,24.0,99,-99.99,,,-99.99,,2013-01-20 03:45:00,
2013-01-19 22:54:00,30.0,30.0,29.33,West,275,11.0,24.0,99,-99.99,,,-99.99,,2013-01-20 03:54:00,
2013-01-19 23:05:00,30.0,29.0,29.34,West,270,9.0,21.0,98,-99.99,,,-99.99,,2013-01-20 04:05:00,
2013-01-19 23:15:00,30.0,29.0,29.34,West,270,9.0,21.0,98,-99.99,,,-99.99,,2013-01-20 04:15:00,
2013-01-19 23:27:00,28.0,26.0,29.35,West,275,14.0,34.0,93,-99.99,,,-99.99,,2013-01-20 04:27:00,
2013-01-19 23:38:00,27.0,23.0,29.36,West,270,20.0,34.0,87,-99.99,,,-99.99,,2013-01-20 04:38:00,
2013-01-19 23:45:00,27.0,23.0,29.36,West,270,20.0,34.0,87,-99.99,,,-99.99,,2013-01-20 04:45:00,
2013-01-19 23:55:00,26.0,22.0,29.37,WNW,290,13.0,27.0,84,-99.99,,,-99.99,,2013-01-20 04:55:00,